Azle, Texas
Current Conditions -  °F | °C
As of 7:52 PM on Thursday 20 Nov 2014 (Local Time) from KNFW Reporting Station
Scattered Clouds Scattered Clouds  
Wind Chill: 69°   Ceiling: Unl
Heat Index: 69°   Visibility: 10mi
Dew Point: 53°   Wind: 9mph
Humidity: 57%   Direction: 150°SSE
Pressure: 30.05"   Gusts: NA
Location:  32.88°N, 97.54°W
Report Text: KNFW 210152Z 15008KT 10SM FEW100 SCT200 21/12 A3005 RMK AO2 SLP159 T02060117 $
Loading
Personal Weather Stations






























Interactive Weather Map New forecast layout! Learn more

10-Day Weather Forecast

Advertisements
Track Severe Weather on mobile